createdAt,value
2022-12-17T00:01:08.763Z,14.70
2022-12-17T00:03:56.795Z,14.32
2022-12-17T00:06:43.060Z,14.13
2022-12-17T00:09:28.730Z,14.27
2022-12-17T00:12:14.353Z,15.15
2022-12-17T00:15:00.007Z,12.73
2022-12-17T00:17:45.759Z,14.45
2022-12-17T00:20:31.836Z,13.77
2022-12-17T00:23:19.252Z,13.50
2022-12-17T00:26:13.396Z,15.57
2022-12-17T00:28:59.606Z,13.30
2022-12-17T00:31:48.174Z,14.93
2022-12-17T00:34:33.975Z,14.13
2022-12-17T00:37:19.748Z,13.85
2022-12-17T00:40:05.516Z,14.85
2022-12-17T00:42:51.434Z,12.38
2022-12-17T00:45:37.748Z,12.75
2022-12-17T00:48:23.566Z,14.55
2022-12-17T00:51:09.212Z,13.27
2022-12-17T00:53:55.353Z,11.18
2022-12-17T00:56:40.987Z,13.10
2022-12-17T00:59:26.646Z,11.02
2022-12-17T01:02:12.495Z,12.55
2022-12-17T01:04:58.354Z,12.75
2022-12-17T01:07:44.004Z,11.77
2022-12-17T01:10:29.782Z,12.20
2022-12-17T01:13:16.613Z,10.88
2022-12-17T01:16:02.305Z,13.15
2022-12-17T01:18:48.068Z,10.93
2022-12-17T01:21:33.835Z,11.23
2022-12-17T01:24:19.552Z,11.00
2022-12-17T01:27:05.784Z,12.15
2022-12-17T01:29:51.515Z,11.85
2022-12-17T01:32:37.210Z,11.32
2022-12-17T01:35:23.194Z,11.43
2022-12-17T01:38:09.083Z,12.48
2022-12-17T01:40:54.734Z,11.75
2022-12-17T01:43:56.675Z,11.55
2022-12-17T01:46:44.778Z,11.57
2022-12-17T01:49:31.570Z,12.95
2022-12-17T01:52:18.666Z,12.23
2022-12-17T01:55:05.337Z,13.07
2022-12-17T01:57:51.586Z,12.75
2022-12-17T02:00:38.371Z,13.73
2022-12-17T02:03:24.565Z,11.63
2022-12-17T02:06:32.437Z,13.00
2022-12-17T02:09:34.571Z,12.38
2022-12-17T02:12:32.473Z,13.30
2022-12-17T02:15:25.128Z,13.35
2022-12-17T02:18:15.416Z,11.55
2022-12-17T02:21:09.628Z,12.45
2022-12-17T02:24:23.530Z,12.52
2022-12-17T02:27:30.742Z,11.68
2022-12-17T02:30:22.302Z,12.80
2022-12-17T02:33:10.406Z,13.98
2022-12-17T02:36:12.015Z,11.10
2022-12-17T02:38:57.829Z,12.68
2022-12-17T02:41:52.764Z,14.85
2022-12-17T02:44:40.797Z,12.75
2022-12-17T02:47:29.507Z,12.93
2022-12-17T02:50:15.258Z,12.30
2022-12-17T02:53:22.826Z,12.10
2022-12-17T02:56:09.111Z,13.25
2022-12-17T02:58:56.838Z,11.15
2022-12-17T03:01:42.760Z,13.10
2022-12-17T03:04:28.554Z,12.95
2022-12-17T03:07:14.239Z,13.27
2022-12-17T03:10:01.345Z,14.30
2022-12-17T03:12:48.970Z,14.20
2022-12-17T03:15:34.537Z,12.48
2022-12-17T03:18:20.158Z,13.05
2022-12-17T03:21:05.900Z,13.23
2022-12-17T03:23:51.581Z,12.15
2022-12-17T03:26:37.529Z,12.32
2022-12-17T03:29:23.108Z,10.27
2022-12-17T03:32:28.697Z,11.95
2022-12-17T03:35:14.515Z,12.23
2022-12-17T03:38:02.247Z,11.88
2022-12-17T03:40:48.224Z,11.82
2022-12-17T03:43:34.317Z,11.90
2022-12-17T03:46:20.261Z,10.63
2022-12-17T03:49:06.185Z,12.35
2022-12-17T03:51:51.811Z,10.85
2022-12-17T03:54:37.476Z,10.35
2022-12-17T03:57:23.136Z,10.18
2022-12-17T04:00:08.925Z,11.70
2022-12-17T04:03:00.926Z,11.98
2022-12-17T04:05:46.873Z,10.45
2022-12-17T04:08:32.572Z,11.52
2022-12-17T04:11:19.546Z,8.57
2022-12-17T04:14:05.163Z,12.45
2022-12-17T04:16:50.843Z,8.90
2022-12-17T04:19:36.562Z,8.43
2022-12-17T04:22:22.290Z,7.38
2022-12-17T04:25:07.902Z,7.25
2022-12-17T04:27:53.788Z,5.85
2022-12-17T04:30:39.551Z,6.65
2022-12-17T04:33:25.118Z,6.88
2022-12-17T04:36:10.703Z,6.65
2022-12-17T04:38:56.221Z,7.05
2022-12-17T04:41:41.908Z,7.00
2022-12-17T04:44:32.103Z,5.72
2022-12-17T04:47:17.708Z,6.32
2022-12-17T04:50:03.349Z,6.43
2022-12-17T04:52:49.063Z,6.15
2022-12-17T04:55:34.738Z,5.88
2022-12-17T04:58:24.978Z,7.38
2022-12-17T05:01:11.561Z,7.38
2022-12-17T05:03:57.943Z,7.25
2022-12-17T05:06:43.639Z,6.70
2022-12-17T05:09:29.461Z,6.35
2022-12-17T05:12:15.177Z,6.22
2022-12-17T05:15:00.861Z,5.78
2022-12-17T05:17:46.503Z,6.70
2022-12-17T05:20:32.188Z,6.97
2022-12-17T05:23:27.083Z,6.97
2022-12-17T05:26:38.485Z,6.85
2022-12-17T05:29:24.596Z,6.90
2022-12-17T05:32:10.377Z,7.18
2022-12-17T05:34:56.069Z,7.13
2022-12-17T05:37:43.381Z,7.13
2022-12-17T05:40:29.861Z,7.45
2022-12-17T05:43:24.430Z,6.85
2022-12-17T05:46:11.220Z,7.28
2022-12-17T05:48:57.022Z,5.72
2022-12-17T05:51:43.375Z,6.88
2022-12-17T05:54:29.253Z,6.43
2022-12-17T05:57:14.760Z,7.50
2022-12-17T06:00:00.348Z,6.78
2022-12-17T06:02:46.084Z,6.78
2022-12-17T06:05:42.532Z,6.25
2022-12-17T06:08:29.051Z,6.45
2022-12-17T06:11:18.230Z,5.32
2022-12-17T06:14:05.450Z,5.25
2022-12-17T06:16:51.014Z,4.88
2022-12-17T06:19:36.907Z,4.63
2022-12-17T06:22:22.802Z,5.95
2022-12-17T06:25:08.309Z,5.55
2022-12-17T06:27:54.093Z,5.07
2022-12-17T06:30:39.779Z,5.55
2022-12-17T06:33:27.930Z,5.03
2022-12-17T06:36:21.596Z,5.43
2022-12-17T06:39:07.930Z,6.32
2022-12-17T06:42:02.046Z,5.53
2022-12-17T06:44:50.364Z,5.13
2022-12-17T06:47:36.645Z,4.80
2022-12-17T06:50:23.692Z,4.47
2022-12-17T06:53:23.801Z,4.53
2022-12-17T06:56:09.891Z,4.85
2022-12-17T06:58:56.351Z,4.88
2022-12-17T07:01:42.203Z,4.50
2022-12-17T07:04:27.973Z,3.55
2022-12-17T07:07:13.804Z,5.07
2022-12-17T07:10:00.181Z,5.47
2022-12-17T07:12:45.886Z,4.85
2022-12-17T07:15:32.167Z,4.28
2022-12-17T07:18:21.613Z,4.38
2022-12-17T07:21:10.722Z,4.53
2022-12-17T07:23:56.774Z,4.38
2022-12-17T07:26:42.968Z,4.88
2022-12-17T07:29:28.683Z,4.10
2022-12-17T07:32:14.412Z,4.68
2022-12-17T07:35:00.432Z,4.82
2022-12-17T07:37:46.267Z,3.95
2022-12-17T07:40:32.008Z,5.00
2022-12-17T07:43:17.752Z,4.50
2022-12-17T07:46:03.665Z,4.45
2022-12-17T07:48:49.630Z,4.57
2022-12-17T07:51:35.541Z,3.75
2022-12-17T07:54:21.665Z,4.38
2022-12-17T07:57:07.341Z,4.03
2022-12-17T07:59:52.923Z,3.50
2022-12-17T08:02:38.833Z,3.88
2022-12-17T08:05:26.298Z,4.22
2022-12-17T08:08:13.755Z,4.47
2022-12-17T08:10:59.852Z,3.95
2022-12-17T08:13:45.455Z,3.80
2022-12-17T08:16:32.231Z,3.58
2022-12-17T08:19:18.275Z,3.28
2022-12-17T08:22:04.058Z,3.25
2022-12-17T08:24:49.817Z,3.65
2022-12-17T08:27:35.536Z,4.10
2022-12-17T08:30:21.339Z,3.20
2022-12-17T08:33:07.566Z,2.95
2022-12-17T08:35:53.206Z,2.88
2022-12-17T08:38:52.832Z,2.40
2022-12-17T08:41:54.183Z,3.55
2022-12-17T08:44:41.208Z,3.17
2022-12-17T08:47:27.205Z,3.22
2022-12-17T08:50:13.097Z,3.63
2022-12-17T08:52:58.644Z,3.60
2022-12-17T08:55:44.282Z,3.83
2022-12-17T08:58:30.134Z,3.63
2022-12-17T09:01:20.132Z,3.90
2022-12-17T09:04:06.439Z,5.28
2022-12-17T09:06:52.086Z,3.45
2022-12-17T09:09:37.749Z,3.72
2022-12-17T09:12:23.852Z,3.92
2022-12-17T09:15:09.439Z,3.78
2022-12-17T09:17:55.050Z,3.58
2022-12-17T09:20:40.917Z,3.10
2022-12-17T09:23:26.619Z,3.33
2022-12-17T09:26:16.474Z,4.72
2022-12-17T09:29:02.226Z,3.92
2022-12-17T09:31:49.752Z,3.08
2022-12-17T09:34:35.909Z,3.67
2022-12-17T09:37:22.133Z,3.55
2022-12-17T09:40:08.137Z,4.35
2022-12-17T09:43:05.210Z,3.95
2022-12-17T09:46:13.158Z,3.20
2022-12-17T09:49:24.998Z,2.95
2022-12-17T09:52:10.671Z,3.50
2022-12-17T09:55:01.958Z,4.20
2022-12-17T09:57:52.716Z,3.95
2022-12-17T10:00:39.928Z,3.00
2022-12-17T10:03:43.972Z,4.30
2022-12-17T10:06:38.282Z,4.65
2022-12-17T10:09:32.625Z,3.97
2022-12-17T10:12:36.452Z,4.35
2022-12-17T10:15:24.471Z,4.72
2022-12-17T10:18:10.715Z,4.88
2022-12-17T10:21:08.704Z,5.85
2022-12-17T10:23:54.318Z,5.03
2022-12-17T10:26:46.099Z,4.90
2022-12-17T10:29:40.173Z,5.68
2022-12-17T10:32:35.432Z,5.35
2022-12-17T10:35:26.014Z,5.78
2022-12-17T10:38:11.949Z,5.25
2022-12-17T10:40:57.591Z,5.60
2022-12-17T10:43:53.473Z,5.85
2022-12-17T10:47:14.494Z,6.65
2022-12-17T10:50:00.201Z,5.47
2022-12-17T10:52:48.248Z,6.78
2022-12-17T10:55:44.360Z,7.45
2022-12-17T10:58:37.207Z,6.22
2022-12-17T11:01:23.785Z,6.10
2022-12-17T11:04:15.330Z,5.55
2022-12-17T11:07:04.546Z,5.15
2022-12-17T11:10:10.338Z,4.00
2022-12-17T11:13:06.509Z,4.63
2022-12-17T11:16:06.989Z,4.90
2022-12-17T11:19:03.175Z,3.30
2022-12-17T11:22:09.073Z,3.92
2022-12-17T11:25:04.972Z,3.88
2022-12-17T11:27:56.665Z,2.90
2022-12-17T11:30:42.359Z,3.08
2022-12-17T11:33:45.005Z,2.85
2022-12-17T11:36:41.081Z,2.10
2022-12-17T11:39:46.006Z,1.80
2022-12-17T11:42:45.539Z,1.15
2022-12-17T11:46:16.783Z,1.10
2022-12-17T11:49:11.522Z,1.13
2022-12-17T11:52:20.947Z,0.82
2022-12-17T11:55:22.292Z,0.80
2022-12-17T11:58:10.752Z,0.90
2022-12-17T12:01:25.692Z,0.80
2022-12-17T12:04:27.880Z,1.00
2022-12-17T12:07:34.320Z,1.60
2022-12-17T12:10:26.688Z,1.30
2022-12-17T12:13:27.394Z,1.35
2022-12-17T12:16:44.660Z,1.48
2022-12-17T12:19:57.311Z,1.00
2022-12-17T12:22:57.629Z,1.23
2022-12-17T12:26:15.747Z,1.45
2022-12-17T12:29:12.704Z,1.25
2022-12-17T12:32:13.936Z,1.60
2022-12-17T12:35:18.534Z,0.90
2022-12-17T12:38:04.669Z,1.40
2022-12-17T12:40:53.980Z,1.25
2022-12-17T12:43:48.844Z,1.85
2022-12-17T12:46:40.732Z,2.08
2022-12-17T12:49:52.363Z,1.75
2022-12-17T12:52:47.699Z,1.60
2022-12-17T12:55:33.708Z,1.95
2022-12-17T12:58:25.118Z,2.58
2022-12-17T13:01:13.605Z,1.95
2022-12-17T13:04:02.425Z,1.80
2022-12-17T13:07:02.010Z,2.83
2022-12-17T13:09:34.109Z,2.22
2022-12-17T13:12:04.890Z,1.88
2022-12-17T13:14:44.035Z,2.22
2022-12-17T13:17:17.488Z,2.72
2022-12-17T13:20:00.573Z,2.70
2022-12-17T13:22:30.846Z,1.98
2022-12-17T13:25:17.378Z,2.42
2022-12-17T13:27:45.313Z,2.20
2022-12-17T13:30:22.932Z,3.30
2022-12-17T13:33:02.158Z,3.25
2022-12-17T13:35:38.164Z,3.28
2022-12-17T13:38:31.991Z,3.05
2022-12-17T13:41:32.962Z,2.38
2022-12-17T13:44:04.558Z,3.58
2022-12-17T13:46:49.740Z,2.53
2022-12-17T13:49:25.854Z,2.60
2022-12-17T13:52:15.149Z,2.63
2022-12-17T13:54:42.473Z,2.50
2022-12-17T13:57:18.878Z,3.00
2022-12-17T13:59:54.261Z,2.88
2022-12-17T14:02:27.270Z,3.38
2022-12-17T14:04:56.985Z,2.20
2022-12-17T14:07:26.995Z,2.60
2022-12-17T14:09:55.093Z,2.78
2022-12-17T14:12:25.842Z,3.63
2022-12-17T14:15:08.395Z,2.50
2022-12-17T14:17:37.448Z,2.47
2022-12-17T14:20:06.480Z,2.90
2022-12-17T14:22:37.304Z,2.00
2022-12-17T14:25:06.848Z,3.42
2022-12-17T14:27:36.546Z,3.65
2022-12-17T14:30:25.864Z,3.78
2022-12-17T14:32:53.722Z,3.40
2022-12-17T14:35:26.845Z,3.08
2022-12-17T14:37:54.444Z,2.28
2022-12-17T14:40:23.586Z,2.38
2022-12-17T14:42:52.302Z,2.70
2022-12-17T14:45:25.100Z,2.95
2022-12-17T14:47:53.867Z,3.25
2022-12-17T14:50:34.501Z,3.17
2022-12-17T14:53:25.683Z,4.65
2022-12-17T14:55:56.712Z,5.15
2022-12-17T14:58:25.852Z,4.10
2022-12-17T15:01:09.302Z,3.55
2022-12-17T15:03:42.919Z,3.63
2022-12-17T15:06:13.320Z,3.72
2022-12-17T15:08:42.865Z,3.10
2022-12-17T15:11:15.944Z,3.10
2022-12-17T15:13:43.566Z,3.97
2022-12-17T15:16:11.223Z,3.80
2022-12-17T15:18:38.800Z,3.63
2022-12-17T15:21:06.249Z,3.53
2022-12-17T15:23:33.696Z,3.67
2022-12-17T15:26:00.892Z,3.95
2022-12-17T15:28:28.047Z,3.58
2022-12-17T15:30:55.363Z,3.78
2022-12-17T15:33:22.772Z,3.50
2022-12-17T15:35:50.019Z,3.35
2022-12-17T15:38:17.257Z,3.50
2022-12-17T15:40:44.491Z,3.72
2022-12-17T15:43:12.669Z,7.30
2022-12-17T15:45:52.071Z,11.50
2022-12-17T15:48:21.789Z,7.07
2022-12-17T15:50:49.507Z,4.72
2022-12-17T15:53:16.825Z,4.53
2022-12-17T15:55:44.763Z,3.90
2022-12-17T15:58:12.059Z,3.97
2022-12-17T16:00:39.325Z,3.28
2022-12-17T16:03:06.815Z,3.30
2022-12-17T16:05:34.114Z,2.50
2022-12-17T16:08:02.726Z,3.10
2022-12-17T16:10:30.370Z,3.63
2022-12-17T16:12:58.013Z,3.60
2022-12-17T16:15:25.448Z,2.65
2022-12-17T16:17:52.971Z,3.25
2022-12-17T16:20:20.439Z,2.55
2022-12-17T16:22:47.938Z,3.38
2022-12-17T16:25:15.316Z,4.20
2022-12-17T16:27:42.713Z,4.00
2022-12-17T16:30:11.384Z,4.30
2022-12-17T16:32:39.001Z,5.10
2022-12-17T16:35:06.758Z,5.05
2022-12-17T16:37:34.139Z,4.35
2022-12-17T16:40:01.377Z,4.93
2022-12-17T16:42:28.637Z,5.38
2022-12-17T16:44:55.859Z,6.30
2022-12-17T16:47:23.268Z,5.65
2022-12-17T16:49:51.114Z,6.57
2022-12-17T16:52:18.482Z,4.40
2022-12-17T16:54:45.770Z,4.35
2022-12-17T16:57:13.019Z,3.67
2022-12-17T16:59:40.218Z,5.75
2022-12-17T17:02:13.707Z,4.30
2022-12-17T17:04:41.296Z,3.72
2022-12-17T17:07:08.539Z,5.38
2022-12-17T17:09:35.907Z,5.43
2022-12-17T17:12:03.211Z,6.05
2022-12-17T17:14:30.565Z,5.65
2022-12-17T17:16:57.826Z,6.70
2022-12-17T17:19:25.286Z,6.10
2022-12-17T17:21:54.361Z,7.80
2022-12-17T17:24:27.040Z,7.07
2022-12-17T17:26:55.612Z,8.57
2022-12-17T17:29:23.206Z,8.02
2022-12-17T17:32:09.910Z,9.95
2022-12-17T17:34:39.150Z,8.60
2022-12-17T17:37:06.456Z,8.70
2022-12-17T17:39:34.482Z,7.38
2022-12-17T17:42:02.212Z,9.27
2022-12-17T17:44:29.470Z,7.28
2022-12-17T17:46:56.800Z,9.75
2022-12-17T17:49:24.101Z,10.27
2022-12-17T17:54:39.814Z,9.60
2022-12-17T17:57:08.603Z,10.35
2022-12-17T17:59:35.927Z,9.32
2022-12-17T18:02:03.751Z,9.27
2022-12-17T18:04:31.758Z,10.02
2022-12-17T18:09:46.638Z,10.77
2022-12-17T18:12:42.921Z,9.15
2022-12-17T18:15:15.697Z,9.63
2022-12-17T18:17:50.938Z,10.63
2022-12-17T18:22:46.419Z,9.30
2022-12-17T18:25:15.920Z,9.57
2022-12-17T18:27:44.347Z,10.50
2022-12-17T18:30:12.378Z,11.50
2022-12-17T18:32:39.754Z,10.40
2022-12-17T18:35:07.590Z,11.27
2022-12-17T18:37:35.256Z,10.95
2022-12-17T18:40:03.603Z,11.00
2022-12-17T18:42:52.829Z,10.40
2022-12-17T18:45:20.472Z,8.82
2022-12-17T18:47:47.923Z,8.27
2022-12-17T18:50:15.500Z,7.80
2022-12-17T18:52:42.815Z,7.20
2022-12-17T18:55:10.203Z,6.10
2022-12-17T18:57:37.593Z,5.53
2022-12-17T19:00:05.961Z,5.53
2022-12-17T19:02:33.299Z,4.90
2022-12-17T19:05:00.637Z,5.15
2022-12-17T19:07:27.931Z,4.85
2022-12-17T19:09:55.199Z,5.78
2022-12-17T19:12:22.508Z,4.75
2022-12-17T19:14:49.756Z,5.68
2022-12-17T19:17:17.231Z,5.63
2022-12-17T19:19:44.486Z,4.93
2022-12-17T19:22:11.818Z,5.75
2022-12-17T19:24:39.152Z,5.22
2022-12-17T19:27:06.470Z,5.60
2022-12-17T19:29:34.634Z,4.60
2022-12-17T19:32:02.240Z,5.55
2022-12-17T19:34:29.688Z,5.18
2022-12-17T19:36:57.065Z,5.78
2022-12-17T19:39:24.454Z,5.53
2022-12-17T19:41:51.818Z,6.88
2022-12-17T19:44:22.313Z,6.50
2022-12-17T19:46:49.673Z,6.65
2022-12-17T19:49:17.288Z,6.20
2022-12-17T19:51:44.847Z,5.32
2022-12-17T19:54:15.126Z,6.40
2022-12-17T19:56:44.061Z,5.60
2022-12-17T19:59:11.999Z,6.03
2022-12-17T20:01:45.713Z,6.75
2022-12-17T20:04:14.524Z,6.35
2022-12-17T20:06:43.116Z,6.85
2022-12-17T20:09:10.741Z,8.32
2022-12-17T20:11:38.455Z,8.00
2022-12-17T20:14:10.735Z,7.80
2022-12-17T20:16:49.773Z,7.35
2022-12-17T20:19:20.155Z,8.05
2022-12-17T20:21:48.104Z,7.40
2022-12-17T20:24:16.510Z,7.90
2022-12-17T20:26:45.589Z,7.93
2022-12-17T20:29:13.192Z,7.72
2022-12-17T20:31:43.287Z,8.02
2022-12-17T20:34:15.247Z,8.60
2022-12-17T20:36:43.943Z,8.85
2022-12-17T20:39:12.194Z,7.80
2022-12-17T20:41:40.334Z,8.98
2022-12-17T20:44:13.128Z,9.25
2022-12-17T20:46:41.364Z,9.68
2022-12-17T20:49:08.820Z,11.40
2022-12-17T20:51:36.155Z,9.65
2022-12-17T20:54:04.100Z,9.73
2022-12-17T20:56:34.180Z,10.48
2022-12-17T20:59:04.747Z,10.95
2022-12-17T21:01:34.385Z,9.48
2022-12-17T21:04:02.675Z,12.52
2022-12-17T21:06:35.925Z,13.52
2022-12-17T21:09:04.501Z,12.68
2022-12-17T21:11:33.812Z,14.00
2022-12-17T21:14:04.812Z,13.40
2022-12-17T21:16:36.085Z,14.32
2022-12-17T21:19:06.109Z,12.55
2022-12-17T21:21:36.744Z,10.75
2022-12-17T21:24:04.859Z,10.38
2022-12-17T21:26:35.710Z,12.93
2022-12-17T21:29:06.029Z,11.15
2022-12-17T21:31:42.597Z,12.50
2022-12-17T21:34:25.477Z,13.13
2022-12-17T21:36:52.876Z,11.93
2022-12-17T21:39:21.390Z,13.45
2022-12-17T21:42:20.956Z,13.98
2022-12-17T21:44:49.047Z,13.15
2022-12-17T21:47:16.482Z,12.98
2022-12-17T21:49:43.995Z,11.77
2022-12-17T21:52:11.222Z,13.73
2022-12-17T21:54:38.639Z,12.10
2022-12-17T21:57:06.918Z,12.15
2022-12-17T21:59:34.199Z,12.15
2022-12-17T22:02:01.600Z,13.88
2022-12-17T22:04:29.155Z,12.15
2022-12-17T22:07:07.057Z,13.45
2022-12-17T22:10:08.023Z,14.73
2022-12-17T22:12:50.460Z,14.52
2022-12-17T22:15:18.076Z,13.68
2022-12-17T22:17:46.314Z,13.32
2022-12-17T22:20:16.292Z,14.00
2022-12-17T22:22:45.392Z,14.25
2022-12-17T22:25:13.730Z,15.20
2022-12-17T22:27:42.125Z,16.13
2022-12-17T22:30:34.299Z,14.38
2022-12-17T22:33:09.494Z,16.85
2022-12-17T22:38:04.255Z,14.55
2022-12-17T22:42:51.908Z,15.32
2022-12-17T22:44:35.486Z,13.50
2022-12-17T22:44:55.106Z,15.32
2022-12-17T22:47:24.167Z,15.73
2022-12-17T22:49:51.627Z,15.43
2022-12-17T22:52:19.960Z,16.58
2022-12-17T22:54:47.860Z,16.80
2022-12-17T22:57:36.057Z,16.55
2022-12-17T23:00:05.259Z,15.85
2022-12-17T23:02:32.565Z,16.63
2022-12-17T23:05:00.793Z,15.65
2022-12-17T23:07:32.001Z,24.02
2022-12-17T23:09:59.453Z,19.35
2022-12-17T23:12:45.205Z,17.90
2022-12-17T23:15:12.553Z,18.63
2022-12-17T23:17:39.991Z,19.63
2022-12-17T23:20:07.856Z,16.40
2022-12-17T23:22:35.233Z,15.68
2022-12-17T23:25:02.822Z,15.27
2022-12-17T23:27:30.280Z,15.82
2022-12-17T23:29:57.543Z,15.98
2022-12-17T23:32:25.110Z,16.63
2022-12-17T23:34:52.471Z,15.90
2022-12-17T23:37:19.725Z,15.05
2022-12-17T23:39:47.000Z,15.75
2022-12-17T23:42:14.260Z,15.48
2022-12-17T23:44:41.554Z,13.75
2022-12-17T23:47:08.890Z,14.18
2022-12-17T23:49:36.237Z,16.00
2022-12-17T23:52:03.776Z,15.13
2022-12-17T23:54:31.179Z,15.55
2022-12-17T23:56:58.600Z,14.63
2022-12-17T23:59:26.236Z,16.35
